Time;durP1;ratioP1;P1;durP2;ratioP2;P2;SDS_P1;SDS_P2;PMS_P1;PMS_P2;Temp;Humidity;BMP_temperature;BMP_pressure;BME280_temperature;BME280_humidity;BME280_pressure;Samples;Min_cycle;Max_cycle;Signal;HPM_P1;HPM_P2
2021/03/21 00:01:34;;;;;;;33.37;4.77;;;19.50;99.90;;;;;;5069004;28;20535;-72
2021/03/21 00:04:02;;;;;;;25.30;4.17;;;19.50;99.90;;;;;;5074596;28;20179;-70
2021/03/21 00:06:29;;;;;;;19.23;4.27;;;19.60;99.90;;;;;;5073505;28;20214;-72
2021/03/21 00:08:56;;;;;;;28.33;6.00;;;19.60;99.90;;;;;;5072596;28;20199;-70
2021/03/21 00:11:24;;;;;;;27.83;6.53;;;19.60;99.90;;;;;;5073044;28;20178;-71
2021/03/21 00:13:51;;;;;;;30.40;6.03;;;19.70;99.90;;;;;;5072638;28;20207;-71
2021/03/21 00:16:18;;;;;;;26.40;5.10;;;19.80;99.90;;;;;;5073504;28;20661;-70
2021/03/21 00:18:47;;;;;;;30.57;5.17;;;19.80;99.90;;;;;;5072781;28;20180;-71
2021/03/21 00:21:15;;;;;;;29.03;4.93;;;19.90;99.90;;;;;;5064486;28;20183;-71
2021/03/21 00:23:44;;;;;;;40.43;5.33;;;19.80;99.90;;;;;;5059293;28;20178;-71
2021/03/21 00:26:13;;;;;;;28.70;5.50;;;19.80;99.90;;;;;;5069582;28;20537;-72
2021/03/21 00:28:41;;;;;;;21.17;3.70;;;19.90;99.90;;;;;;5070616;28;20288;-70
2021/03/21 00:31:11;;;;;;;19.20;3.67;;;19.90;99.90;;;;;;5072866;28;20189;-71
2021/03/21 00:33:39;;;;;;;28.93;4.07;;;20.00;99.90;;;;;;5071844;28;20218;-69
2021/03/21 00:36:09;;;;;;;34.73;5.80;;;20.00;99.90;;;;;;5070676;28;20186;-70
2021/03/21 00:38:40;;;;;;;26.40;5.33;;;20.00;99.90;;;;;;5063380;28;20278;-69
2021/03/21 00:41:09;;;;;;;23.80;6.57;;;20.00;99.90;;;;;;5069491;28;20180;-69
2021/03/21 00:43:36;;;;;;;29.10;4.40;;;20.10;99.90;;;;;;5069346;28;20569;-69
2021/03/21 00:46:05;;;;;;;34.53;5.45;;;20.10;99.90;;;;;;5068887;28;20404;-71
2021/03/21 00:48:43;;;;;;;27.47;5.23;;;20.20;99.90;;;;;;5068194;28;20206;-70
2021/03/21 00:51:12;;;;;;;24.80;5.30;;;20.20;99.90;;;;;;5065876;28;20186;-70
2021/03/21 00:53:39;;;;;;;29.20;4.80;;;20.30;99.90;;;;;;5067022;28;20199;-71
2021/03/21 00:56:08;;;;;;;23.10;4.00;;;20.30;99.90;;;;;;5068444;28;20565;-69
2021/03/21 00:58:37;;;;;;;28.87;4.97;;;20.30;99.90;;;;;;5071018;28;20265;-69
2021/03/21 01:01:05;;;;;;;29.10;4.23;;;20.30;99.90;;;;;;5070968;28;20179;-70
2021/03/21 01:03:32;;;;;;;31.03;5.30;;;20.20;99.90;;;;;;5070590;28;20672;-70
2021/03/21 01:06:03;;;;;;;29.77;4.47;;;20.30;99.90;;;;;;5069134;28;20256;-69
2021/03/21 01:08:39;;;;;;;27.37;4.73;;;20.20;99.90;;;;;;5070589;28;20839;-69
2021/03/21 01:11:23;;;;;;;31.07;5.27;;;20.20;99.90;;;;;;5070512;28;20220;-71
2021/03/21 01:13:50;;;;;;;24.13;4.13;;;20.20;99.90;;;;;;5063917;28;20684;-70
2021/03/21 01:16:25;;;;;;;25.30;4.60;;;20.20;99.90;;;;;;5069291;28;20210;-71
2021/03/21 01:18:53;;;;;;;32.60;5.20;;;20.10;99.90;;;;;;5071341;28;20202;-70
2021/03/21 01:21:26;;;;;;;28.60;4.57;;;20.00;99.90;;;;;;5070492;28;20650;-69
2021/03/21 01:23:54;;;;;;;34.17;6.00;;;20.00;99.90;;;;;;5069673;28;20514;-71
2021/03/21 01:26:24;;;;;;;29.07;5.30;;;20.00;99.90;;;;;;5070906;28;20183;-71
2021/03/21 01:28:55;;;;;;;28.37;5.63;;;20.00;99.90;;;;;;5070543;28;20229;-69
2021/03/21 01:31:25;;;;;;;27.70;4.83;;;20.00;99.90;;;;;;5065396;28;20206;-71
2021/03/21 01:33:53;;;;;;;26.00;3.97;;;20.00;99.90;;;;;;5068394;28;20236;-71
2021/03/21 01:36:27;;;;;;;30.63;4.67;;;20.00;99.90;;;;;;5069613;28;20179;-71
2021/03/21 01:38:55;;;;;;;25.17;3.63;;;20.00;99.90;;;;;;5069959;28;20179;-69
2021/03/21 01:41:26;;;;;;;23.17;5.70;;;20.00;99.90;;;;;;5067734;28;20178;-69
2021/03/21 01:43:54;;;;;;;27.50;6.07;;;20.20;99.90;;;;;;5069060;28;20187;-71
2021/03/21 01:46:34;;;;;;;16.57;3.87;;;20.30;99.90;;;;;;5069123;28;20237;-70
2021/03/21 01:49:08;;;;;;;28.37;4.70;;;20.40;99.90;;;;;;5068205;28;20227;-68
2021/03/21 01:51:40;;;;;;;21.30;4.57;;;20.50;99.90;;;;;;5064958;28;20175;-70
2021/03/21 01:54:14;;;;;;;24.20;3.97;;;20.60;99.90;;;;;;5069897;28;20218;-69
2021/03/21 01:56:42;;;;;;;24.30;4.50;;;20.60;99.90;;;;;;5069432;28;20673;-69
2021/03/21 01:59:32;;;;;;;18.13;4.17;;;20.70;99.90;;;;;;5069905;28;20187;-70
2021/03/21 02:02:02;;;;;;;22.97;3.50;;;20.70;99.90;;;;;;5069578;28;20252;-70
2021/03/21 02:04:30;;;;;;;27.23;4.60;;;20.70;99.90;;;;;;5068459;28;20274;-71
2021/03/21 02:07:32;;;;;;;28.93;5.00;;;20.70;99.90;;;;;;5063084;28;20213;-70
2021/03/21 02:10:04;;;;;;;23.47;5.37;;;20.70;99.90;;;;;;5069407;28;20237;-67
2021/03/21 02:12:50;;;;;;;26.47;5.17;;;20.50;99.90;;;;;;5070528;28;20236;-68
2021/03/21 02:15:27;;;;;;;34.87;4.83;;;20.50;99.90;;;;;;5066549;28;20287;-71
2021/03/21 02:18:18;;;;;;;29.00;3.90;;;20.50;99.90;;;;;;5069759;28;20214;-71
2021/03/21 02:21:09;;;;;;;24.57;4.73;;;20.40;99.90;;;;;;5068025;28;20195;-70
2021/03/21 02:24:00;;;;;;;31.73;5.77;;;20.50;99.90;;;;;;5068709;28;20224;-72
2021/03/21 02:26:52;;;;;;;25.03;4.83;;;20.50;99.90;;;;;;5070270;28;20233;-69
2021/03/21 02:29:31;;;;;;;24.07;5.17;;;20.40;99.90;;;;;;5068701;28;20218;-69
2021/03/21 02:32:08;;;;;;;18.77;3.33;;;20.40;99.90;;;;;;5067039;28;20179;-69
2021/03/21 02:34:46;;;;;;;17.90;3.93;;;20.40;99.90;;;;;;5067806;28;20206;-71
2021/03/21 02:37:32;;;;;;;18.93;3.13;;;20.40;99.90;;;;;;5068810;28;20202;-69
2021/03/21 02:40:09;;;;;;;18.80;3.70;;;20.50;99.90;;;;;;5062905;28;20187;-70
2021/03/21 02:42:43;;;;;;;15.90;3.43;;;20.40;99.90;;;;;;5067442;28;20195;-69
2021/03/21 02:45:24;;;;;;;25.27;4.03;;;20.40;99.90;;;;;;5063968;28;20186;-71
2021/03/21 02:47:52;;;;;;;23.37;3.83;;;20.30;99.90;;;;;;5066504;28;20183;-71
2021/03/21 02:50:30;;;;;;;35.17;5.53;;;20.20;99.90;;;;;;5072625;28;20175;-69
2021/03/21 02:53:16;;;;;;;19.00;4.03;;;20.20;99.90;;;;;;5070183;28;20179;-69
2021/03/21 02:55:47;;;;;;;18.40;3.67;;;20.20;99.90;;;;;;5073651;28;20210;-67
2021/03/21 02:58:33;;;;;;;20.87;4.13;;;20.10;99.90;;;;;;5072153;28;20633;-70
2021/03/21 03:01:38;;;;;;;22.13;4.10;;;20.10;99.90;;;;;;5066306;28;20182;-71
2021/03/21 03:04:14;;;;;;;12.47;3.03;;;20.10;99.90;;;;;;5005341;28;20233;-68
2021/03/21 03:06:50;;;;;;;26.23;4.47;;;20.00;99.90;;;;;;5061625;28;20277;-69
2021/03/21 03:09:42;;;;;;;17.40;4.67;;;20.10;99.90;;;;;;5072550;28;20187;-68
2021/03/21 03:12:14;;;;;;;20.40;4.03;;;20.10;99.90;;;;;;5068667;28;20206;-68
2021/03/21 03:14:43;;;;;;;20.13;4.03;;;20.00;99.90;;;;;;5070641;28;20298;-66
2021/03/21 03:17:16;;;;;;;16.73;3.40;;;19.90;99.90;;;;;;5072181;28;20513;-67
2021/03/21 03:20:10;;;;;;;15.10;2.70;;;19.90;99.90;;;;;;5071553;28;20188;-68
2021/03/21 03:23:28;;;;;;;25.70;4.37;;;19.80;99.90;;;;;;5069535;28;20646;-69
2021/03/21 03:26:03;;;;;;;20.57;3.53;;;19.80;99.90;;;;;;5068121;28;20602;-69
2021/03/21 03:28:58;;;;;;;26.80;4.83;;;19.80;99.90;;;;;;5074042;28;20218;-69
2021/03/21 03:31:34;;;;;;;21.07;3.47;;;19.80;99.90;;;;;;5074387;28;20646;-68
2021/03/21 03:34:01;;;;;;;26.77;4.33;;;19.90;99.90;;;;;;5073978;28;20281;-69
2021/03/21 03:36:29;;;;;;;21.97;3.77;;;19.90;99.90;;;;;;5073891;28;20209;-71
2021/03/21 03:38:56;;;;;;;19.80;3.40;;;19.90;99.90;;;;;;5072756;28;21083;-71
2021/03/21 03:41:39;;;;;;;23.07;3.80;;;20.00;99.90;;;;;;5074219;28;20186;-71
2021/03/21 03:44:26;;;;;;;19.87;3.87;;;20.00;99.90;;;;;;5074465;28;20185;-70
2021/03/21 03:47:04;;;;;;;19.53;3.90;;;20.00;99.90;;;;;;5073593;28;20179;-71
2021/03/21 03:49:43;;;;;;;24.93;4.00;;;20.00;99.90;;;;;;5073198;28;20236;-72
2021/03/21 03:52:16;;;;;;;17.77;3.13;;;19.90;99.90;;;;;;5074427;28;20671;-71
2021/03/21 03:55:02;;;;;;;22.40;4.07;;;19.80;99.90;;;;;;5073263;28;20294;-71
2021/03/21 03:57:33;;;;;;;18.13;3.17;;;19.80;99.90;;;;;;5074042;28;20258;-71
2021/03/21 04:00:22;;;;;;;20.50;3.20;;;19.70;99.90;;;;;;5073854;28;20213;-68
2021/03/21 04:03:05;;;;;;;23.63;3.80;;;19.70;99.90;;;;;;5073343;28;20198;-72
2021/03/21 04:05:53;;;;;;;22.90;5.70;;;19.70;99.90;;;;;;5073917;28;20209;-70
2021/03/21 04:08:21;;;;;;;21.70;4.13;;;19.60;99.90;;;;;;5073999;28;20259;-70
2021/03/21 04:11:01;;;;;;;19.60;3.17;;;19.60;99.90;;;;;;5073508;28;20183;-70
2021/03/21 04:13:52;;;;;;;22.97;3.20;;;19.60;99.90;;;;;;5053720;28;20207;-72
2021/03/21 04:16:25;;;;;;;25.77;3.67;;;19.60;99.90;;;;;;5071387;28;20586;-70
2021/03/21 04:19:04;;;;;;;23.40;3.97;;;19.60;99.90;;;;;;5072021;28;20175;-70
2021/03/21 04:21:48;;;;;;;16.93;3.17;;;19.50;99.90;;;;;;5053729;28;20183;-71
2021/03/21 04:24:33;;;;;;;21.80;3.67;;;19.60;99.90;;;;;;5061304;28;20176;-70
2021/03/21 04:27:06;;;;;;;28.37;4.13;;;19.60;99.90;;;;;;5072331;28;20217;-68
2021/03/21 04:29:48;;;;;;;19.93;3.73;;;19.60;99.90;;;;;;5072868;28;20874;-71
2021/03/21 04:32:23;;;;;;;22.67;3.33;;;19.50;99.90;;;;;;5070478;28;20190;-67
2021/03/21 04:34:54;;;;;;;19.97;3.23;;;19.50;99.90;;;;;;5063715;28;20202;-70
2021/03/21 04:37:24;;;;;;;19.40;3.57;;;19.60;99.90;;;;;;5063362;28;20262;-70
2021/03/21 04:39:54;;;;;;;24.70;4.33;;;19.50;99.90;;;;;;5065797;28;20183;-71
2021/03/21 04:42:55;;;;;;;25.50;6.10;;;19.60;99.90;;;;;;5071287;28;20167;-70
2021/03/21 04:45:32;;;;;;;25.53;4.67;;;19.60;99.90;;;;;;5066572;28;20218;-70
2021/03/21 04:48:05;;;;;;;25.97;3.70;;;19.60;99.90;;;;;;5072458;28;20190;-70
2021/03/21 04:50:34;;;;;;;19.70;3.30;;;19.70;99.90;;;;;;5070631;28;20676;-70
2021/03/21 04:53:31;;;;;;;15.50;2.73;;;19.60;99.90;;;;;;5068951;28;20183;-70
2021/03/21 04:56:02;;;;;;;17.97;3.03;;;19.70;99.90;;;;;;5071908;28;20262;-70
2021/03/21 04:58:38;;;;;;;17.90;3.03;;;19.70;99.90;;;;;;5072717;28;20249;-68
2021/03/21 05:01:14;;;;;;;25.60;3.87;;;19.60;99.90;;;;;;5072438;28;20175;-70
2021/03/21 05:04:03;;;;;;;17.63;3.70;;;19.60;99.90;;;;;;5072152;28;20171;-68
2021/03/21 05:06:51;;;;;;;25.13;3.70;;;19.50;99.90;;;;;;5072008;28;20179;-71
2021/03/21 05:09:27;;;;;;;14.97;4.17;;;19.50;99.90;;;;;;5071115;28;20175;-71
2021/03/21 05:12:05;;;;;;;16.50;2.43;;;19.40;99.90;;;;;;5072541;28;20179;-70
2021/03/21 05:14:42;;;;;;;21.53;3.37;;;19.40;99.90;;;;;;5071913;28;20230;-69
2021/03/21 05:17:50;;;;;;;18.67;2.93;;;19.40;99.90;;;;;;5072110;28;20637;-71
2021/03/21 05:20:50;;;;;;;17.60;4.00;;;19.40;99.90;;;;;;5047337;28;20551;-69
2021/03/21 05:23:50;;;;;;;15.33;2.70;;;19.30;99.90;;;;;;5052940;28;20236;-70
2021/03/21 05:26:38;;;;;;;16.37;2.90;;;19.30;99.90;;;;;;5059256;28;20206;-70
2021/03/21 05:29:05;;;;;;;11.97;2.80;;;19.30;99.90;;;;;;5066076;28;20215;-72
2021/03/21 05:31:33;;;;;;;14.17;2.87;;;19.30;99.90;;;;;;5070789;28;20233;-72
2021/03/21 05:34:02;;;;;;;15.77;2.97;;;19.30;99.90;;;;;;5070973;28;20199;-71
2021/03/21 05:36:56;;;;;;;14.57;2.70;;;19.20;99.90;;;;;;5071441;28;20313;-71
2021/03/21 05:39:47;;;;;;;13.50;2.30;;;19.20;99.90;;;;;;5065004;28;20187;-70
2021/03/21 05:42:33;;;;;;;14.60;2.63;;;19.10;99.90;;;;;;5058781;28;20183;-70
2021/03/21 05:45:06;;;;;;;19.33;3.17;;;19.10;99.90;;;;;;5071698;28;20190;-69
2021/03/21 05:47:40;;;;;;;71.90;10.30;;;19.00;99.90;;;;;;5071747;28;20178;-71
2021/03/21 05:50:44;;;;;;;23.30;3.70;;;19.10;99.90;;;;;;5069649;28;20193;-71
2021/03/21 05:53:41;;;;;;;15.43;2.20;;;19.10;99.90;;;;;;5071813;28;20190;-70
2021/03/21 05:56:37;;;;;;;17.90;3.43;;;19.20;99.90;;;;;;5071502;28;20187;-71
2021/03/21 05:59:11;;;;;;;15.40;3.23;;;19.30;99.90;;;;;;5035938;28;20183;-71
2021/03/21 06:01:45;;;;;;;19.30;3.63;;;19.30;99.90;;;;;;5071933;28;20181;-72
2021/03/21 06:04:30;;;;;;;15.90;3.60;;;19.30;99.90;;;;;;5058475;28;20250;-70
2021/03/21 06:07:15;;;;;;;24.73;3.20;;;19.30;99.90;;;;;;5069561;28;20193;-69
2021/03/21 06:10:20;;;;;;;13.80;2.87;;;19.30;99.90;;;;;;5070260;28;20177;-70
2021/03/21 06:13:14;;;;;;;19.67;2.93;;;19.30;99.90;;;;;;5068945;28;20190;-67
2021/03/21 06:16:15;;;;;;;20.07;3.17;;;19.20;99.90;;;;;;5067199;28;20237;-68
2021/03/21 06:18:57;;;;;;;17.83;2.70;;;19.20;99.90;;;;;;5072716;28;20182;-69
2021/03/21 06:21:54;;;;;;;21.30;3.50;;;19.20;99.90;;;;;;5073053;28;20278;-68
2021/03/21 06:24:40;;;;;;;15.63;2.97;;;19.20;99.90;;;;;;5088836;28;20186;-70
2021/03/21 06:27:19;;;;;;;10.83;2.73;;;19.20;99.90;;;;;;5073598;28;20552;-69
2021/03/21 06:30:10;;;;;;;14.37;2.40;;;19.20;99.90;;;;;;5075579;28;20693;-69
2021/03/21 06:33:02;;;;;;;21.37;4.97;;;19.20;99.90;;;;;;5074868;28;20254;-70
2021/03/21 06:36:03;;;;;;;18.30;3.40;;;19.20;99.90;;;;;;5075178;28;20198;-68
2021/03/21 06:38:49;;;;;;;16.10;2.87;;;19.20;99.90;;;;;;5065582;28;20677;-68
2021/03/21 06:41:26;;;;;;;14.30;2.63;;;19.10;99.90;;;;;;5071229;28;20179;-69
2021/03/21 06:44:16;;;;;;;13.60;2.70;;;19.10;99.90;;;;;;5068471;28;20254;-72
2021/03/21 06:46:59;;;;;;;24.47;6.83;;;19.10;99.90;;;;;;5064067;28;20629;-72
2021/03/21 06:49:55;;;;;;;23.20;6.53;;;19.10;99.90;;;;;;5073318;28;20178;-68
2021/03/21 06:52:35;;;;;;;14.60;3.40;;;19.00;99.90;;;;;;5050029;28;20187;-69
2021/03/21 06:55:05;;;;;;;15.60;2.70;;;19.00;99.90;;;;;;5074990;28;20345;-70
2021/03/21 06:57:53;;;;;;;20.00;4.27;;;18.90;99.90;;;;;;5074094;28;20182;-70
2021/03/21 07:00:53;;;;;;;10.83;2.57;;;18.90;99.90;;;;;;5059919;28;20206;-69
2021/03/21 07:03:35;;;;;;;19.63;3.43;;;18.80;99.90;;;;;;5060942;28;20795;-70
2021/03/21 07:06:36;;;;;;;15.13;2.60;;;18.70;99.90;;;;;;5074632;28;20750;-69
2021/03/21 07:09:07;;;;;;;17.83;4.13;;;18.60;99.90;;;;;;5061709;28;20204;-70
2021/03/21 07:11:52;;;;;;;20.97;2.93;;;18.60;99.90;;;;;;5075035;28;20565;-69
2021/03/21 07:14:31;;;;;;;21.10;2.80;;;18.60;99.90;;;;;;5071853;28;20206;-70
2021/03/21 07:17:11;;;;;;;12.90;3.00;;;18.50;99.90;;;;;;5069115;28;20206;-69
2021/03/21 07:20:23;;;;;;;22.63;4.20;;;18.50;99.90;;;;;;5068086;28;20186;-70
2021/03/21 07:23:26;;;;;;;16.73;3.63;;;18.50;99.90;;;;;;4999998;28;20695;-70
2021/03/21 07:26:03;;;;;;;20.53;3.50;;;18.50;99.90;;;;;;5065817;28;20179;-70
2021/03/21 07:28:55;;;;;;;22.23;3.73;;;18.50;99.90;;;;;;5061182;28;20226;-71
2021/03/21 07:31:55;;;;;;;19.50;3.93;;;18.50;99.90;;;;;;5074319;28;20620;-67
2021/03/21 07:34:32;;;;;;;23.40;4.10;;;18.50;99.90;;;;;;5073175;28;20227;-70
2021/03/21 07:37:29;;;;;;;18.50;4.63;;;18.50;99.90;;;;;;5074258;28;20637;-70
2021/03/21 07:40:28;;;;;;;30.13;6.30;;;18.50;99.90;;;;;;5068202;28;20189;-70
2021/03/21 07:43:25;;;;;;;27.83;7.50;;;18.50;99.90;;;;;;5026080;28;20247;-70
2021/03/21 07:45:58;;;;;;;19.07;3.97;;;18.50;99.90;;;;;;5074251;28;20175;-71
2021/03/21 07:48:43;;;;;;;25.47;3.90;;;18.60;99.90;;;;;;5072891;28;20704;-69
2021/03/21 07:51:14;;;;;;;21.20;4.60;;;18.60;99.90;;;;;;5074384;28;20530;-67
2021/03/21 07:53:50;;;;;;;27.23;4.40;;;18.60;99.90;;;;;;5060367;28;20198;-67
2021/03/21 07:56:28;;;;;;;20.77;4.20;;;18.60;99.90;;;;;;5074226;28;20183;-67
2021/03/21 07:59:00;;;;;;;20.43;3.93;;;18.70;99.90;;;;;;5073957;28;20187;-68
2021/03/21 08:01:28;;;;;;;24.53;3.87;;;18.70;99.90;;;;;;5074415;28;20183;-68
2021/03/21 08:04:21;;;;;;;23.73;4.47;;;18.70;99.90;;;;;;5074560;28;20248;-70
2021/03/21 08:06:58;;;;;;;24.77;5.13;;;18.70;99.90;;;;;;5074232;28;20215;-71
2021/03/21 08:09:36;;;;;;;21.73;3.80;;;18.70;99.90;;;;;;5064013;28;20541;-71
2021/03/21 08:12:07;;;;;;;27.50;3.83;;;18.70;99.90;;;;;;5074322;28;20201;-70
2021/03/21 08:14:45;;;;;;;30.90;4.47;;;18.70;99.90;;;;;;5058226;28;20204;-70
2021/03/21 08:17:28;;;;;;;24.53;4.80;;;18.70;99.90;;;;;;5068180;28;20179;-68
2021/03/21 08:20:18;;;;;;;26.00;6.47;;;18.70;99.90;;;;;;5071356;28;20175;-69
2021/03/21 08:22:47;;;;;;;31.40;5.20;;;18.70;99.90;;;;;;5070313;28;20237;-67
2021/03/21 08:25:32;;;;;;;23.40;4.57;;;18.70;99.90;;;;;;5073612;28;20178;-67
2021/03/21 08:27:59;;;;;;;28.57;5.87;;;18.70;99.90;;;;;;5073225;28;20226;-68
2021/03/21 08:30:44;;;;;;;25.47;3.70;;;18.60;99.90;;;;;;5073523;28;20193;-69
2021/03/21 08:33:23;;;;;;;19.37;3.50;;;18.70;99.90;;;;;;5073429;28;20645;-68
2021/03/21 08:36:18;;;;;;;31.00;4.90;;;18.70;99.90;;;;;;5072237;28;20548;-70
2021/03/21 08:39:15;;;;;;;28.27;5.00;;;18.70;99.90;;;;;;5070291;28;20560;-68
2021/03/21 08:41:52;;;;;;;19.80;4.03;;;18.70;99.90;;;;;;5071965;28;20289;-67
2021/03/21 08:44:41;;;;;;;35.43;9.83;;;18.80;99.90;;;;;;5069169;28;20295;-67
2021/03/21 08:47:27;;;;;;;26.70;5.07;;;18.80;99.90;;;;;;5072785;28;20191;-67
2021/03/21 08:49:58;;;;;;;24.97;4.87;;;18.90;99.90;;;;;;5071881;28;20175;-68
2021/03/21 08:52:46;;;;;;;25.37;3.87;;;18.80;99.90;;;;;;5069737;28;20180;-66
2021/03/21 08:55:35;;;;;;;34.43;5.30;;;18.90;99.90;;;;;;5071717;28;20271;-68
2021/03/21 08:58:26;;;;;;;24.77;4.07;;;18.90;99.90;;;;;;5072917;28;20179;-68
2021/03/21 09:00:54;;;;;;;27.40;5.23;;;19.00;99.90;;;;;;5072910;28;20183;-69
2021/03/21 09:03:33;;;;;;;28.93;5.23;;;19.00;99.90;;;;;;5073262;28;20183;-69
2021/03/21 09:06:01;;;;;;;23.83;4.70;;;19.00;99.90;;;;;;5059284;28;20228;-69
2021/03/21 09:08:34;;;;;;;24.23;4.27;;;19.00;99.90;;;;;;5071376;28;20254;-69
2021/03/21 09:11:05;;;;;;;20.03;3.80;;;18.90;99.90;;;;;;5077375;28;20175;-69
2021/03/21 09:13:35;;;;;;;26.77;4.10;;;18.90;99.90;;;;;;5071491;28;20669;-70
2021/03/21 09:16:09;;;;;;;27.40;5.97;;;18.90;99.90;;;;;;5058495;28;20661;-68
2021/03/21 09:18:39;;;;;;;38.07;5.50;;;18.90;99.90;;;;;;5071434;28;20248;-69
2021/03/21 09:21:25;;;;;;;31.80;6.03;;;19.00;99.90;;;;;;5071659;28;20209;-69
2021/03/21 09:24:02;;;;;;;33.70;4.87;;;19.00;99.90;;;;;;5072469;28;20594;-68
2021/03/21 09:26:45;;;;;;;31.70;5.30;;;19.00;99.90;;;;;;5066869;28;20556;-69
2021/03/21 09:29:22;;;;;;;35.53;4.93;;;19.00;99.90;;;;;;5066282;28;20571;-69
2021/03/21 09:31:53;;;;;;;31.03;5.77;;;19.10;99.90;;;;;;5071652;28;20586;-71
2021/03/21 09:34:50;;;;;;;30.43;4.80;;;19.20;99.90;;;;;;5071505;28;20624;-70
2021/03/21 09:37:27;;;;;;;36.27;5.30;;;19.20;99.90;;;;;;5056303;28;20202;-70
2021/03/21 09:40:26;;;;;;;38.57;5.97;;;19.30;99.90;;;;;;5072352;28;20644;-70
2021/03/21 09:42:54;;;;;;;36.43;5.20;;;19.20;99.90;;;;;;5055317;28;20273;-70
2021/03/21 09:45:22;;;;;;;28.90;5.13;;;19.30;99.90;;;;;;5071976;28;20223;-71
2021/03/21 09:47:57;;;;;;;34.90;5.27;;;19.30;99.90;;;;;;5072223;28;20175;-70
2021/03/21 09:50:47;;;;;;;29.27;4.70;;;19.20;99.90;;;;;;5072117;28;20564;-70
2021/03/21 09:53:39;;;;;;;33.37;4.43;;;19.30;99.90;;;;;;5072979;28;20538;-70
2021/03/21 09:56:40;;;;;;;31.67;5.33;;;19.30;99.90;;;;;;5074748;28;20217;-70
2021/03/21 09:59:46;;;;;;;28.57;5.03;;;19.30;99.90;;;;;;5064700;28;20673;-69
2021/03/21 10:02:27;;;;;;;25.47;5.03;;;19.30;99.90;;;;;;5053848;28;20183;-70
2021/03/21 10:05:03;;;;;;;25.10;4.20;;;19.30;99.90;;;;;;5075743;28;20581;-70
2021/03/21 10:07:37;;;;;;;36.67;7.13;;;19.30;99.90;;;;;;5075831;28;20637;-69
2021/03/21 10:10:08;;;;;;;23.40;5.53;;;19.30;99.90;;;;;;5075769;28;20526;-71
2021/03/21 10:12:42;;;;;;;32.67;4.37;;;19.30;99.90;;;;;;5067828;28;20176;-69
2021/03/21 10:15:26;;;;;;;27.30;5.53;;;19.30;99.90;;;;;;5063682;28;20619;-72
2021/03/21 10:18:00;;;;;;;32.13;6.37;;;19.30;99.90;;;;;;5075870;28;20634;-68
2021/03/21 10:21:03;;;;;;;31.17;4.60;;;19.30;99.90;;;;;;5075082;28;20179;-68
2021/03/21 10:24:06;;;;;;;28.73;5.40;;;19.30;99.90;;;;;;5072538;28;20189;-70
2021/03/21 10:26:35;;;;;;;32.87;9.43;;;19.30;99.90;;;;;;5031749;28;20654;-68
2021/03/21 10:29:22;;;;;;;33.07;6.30;;;19.40;99.90;;;;;;5066978;28;20712;-69
2021/03/21 10:32:20;;;;;;;24.90;5.83;;;19.30;99.90;;;;;;5075637;28;20229;-68
2021/03/21 10:34:49;;;;;;;23.53;4.23;;;19.30;99.90;;;;;;5074718;28;20299;-70
2021/03/21 10:37:59;;;;;;;31.17;4.73;;;19.20;99.90;;;;;;5075282;28;20266;-70
2021/03/21 10:40:27;;;;;;;29.50;3.90;;;19.20;99.90;;;;;;5033443;28;20181;-69
2021/03/21 10:43:03;;;;;;;30.57;3.97;;;19.30;99.90;;;;;;5033518;28;20172;-70
2021/03/21 10:45:33;;;;;;;28.97;3.87;;;19.30;99.90;;;;;;5051344;28;20270;-71
2021/03/21 10:48:02;;;;;;;28.40;4.93;;;19.30;99.90;;;;;;5073920;28;20653;-69
2021/03/21 10:50:29;;;;;;;24.73;4.20;;;19.40;99.90;;;;;;5073742;28;20171;-68
2021/03/21 10:53:27;;;;;;;28.70;4.20;;;19.40;99.90;;;;;;5072917;28;20232;-70
2021/03/21 10:56:05;;;;;;;27.73;3.90;;;19.40;99.90;;;;;;5066605;28;20219;-71
2021/03/21 10:58:53;;;;;;;29.60;4.43;;;19.50;99.90;;;;;;5075131;28;20203;-71
2021/03/21 11:01:28;;;;;;;26.57;4.10;;;19.40;99.90;;;;;;5066268;28;20639;-72
2021/03/21 11:04:02;;;;;;;26.07;4.23;;;19.40;99.90;;;;;;5055258;28;20278;-67
2021/03/21 11:06:32;;;;;;;26.63;4.40;;;19.40;99.90;;;;;;5054422;28;20172;-71
2021/03/21 11:09:15;;;;;;;23.50;3.90;;;19.40;99.90;;;;;;5070958;28;20201;-70
2021/03/21 11:11:49;;;;;;;27.23;4.40;;;19.40;99.90;;;;;;5073277;28;20171;-68
2021/03/21 11:14:21;;;;;;;36.20;10.77;;;19.40;99.90;;;;;;5061603;28;20212;-71
2021/03/21 11:17:00;;;;;;;25.37;5.40;;;19.40;99.90;;;;;;5073254;28;20221;-70
2021/03/21 11:19:47;;;;;;;23.03;4.10;;;19.40;99.90;;;;;;5072637;28;20187;-71
2021/03/21 11:22:37;;;;;;;33.73;5.33;;;19.40;99.90;;;;;;5071064;28;20217;-71
2021/03/21 11:25:06;;;;;;;31.60;5.37;;;19.50;99.90;;;;;;5074027;28;20225;-71
2021/03/21 11:27:38;;;;;;;31.27;5.57;;;19.60;99.90;;;;;;5071473;28;20326;-70
2021/03/21 11:30:13;;;;;;;30.40;6.20;;;19.60;99.90;;;;;;5070890;28;20163;-70
2021/03/21 11:32:42;;;;;;;31.93;5.13;;;19.60;99.90;;;;;;5060724;28;20616;-71
2021/03/21 11:35:25;;;;;;;29.00;5.00;;;19.70;99.90;;;;;;5074053;28;20301;-70
2021/03/21 11:37:57;;;;;;;31.17;4.57;;;19.70;99.90;;;;;;5074028;28;20297;-69
2021/03/21 11:40:35;;;;;;;30.57;4.87;;;19.80;99.90;;;;;;5074510;28;20646;-70
2021/03/21 11:43:21;;;;;;;43.87;5.77;;;19.80;99.90;;;;;;5065855;28;20183;-70
2021/03/21 11:45:50;;;;;;;32.30;5.70;;;19.90;99.90;;;;;;5073925;28;20190;-71
2021/03/21 11:48:33;;;;;;;28.27;5.03;;;20.00;99.90;;;;;;5075725;28;20651;-69
2021/03/21 11:51:03;;;;;;;40.40;5.27;;;19.90;99.90;;;;;;5069745;28;20653;-70
2021/03/21 11:53:36;;;;;;;27.83;6.73;;;19.90;99.90;;;;;;5074123;28;20191;-69
2021/03/21 11:56:15;;;;;;;34.40;4.77;;;19.90;99.90;;;;;;5072224;28;20213;-70
2021/03/21 11:58:49;;;;;;;36.43;4.83;;;19.90;99.90;;;;;;5063994;28;20179;-68
2021/03/21 12:01:29;;;;;;;34.37;4.73;;;19.90;99.90;;;;;;5074186;28;20171;-69
2021/03/21 12:04:01;;;;;;;36.70;4.70;;;20.00;99.90;;;;;;5074824;28;20184;-71
2021/03/21 12:06:41;;;;;;;35.50;5.03;;;20.00;99.90;;;;;;5065692;28;20175;-70
2021/03/21 12:09:26;;;;;;;38.97;5.73;;;20.00;99.90;;;;;;5073341;28;20233;-69
2021/03/21 12:11:54;;;;;;;32.03;4.77;;;20.00;99.90;;;;;;5065905;28;20206;-71
2021/03/21 12:14:46;;;;;;;35.43;4.53;;;20.00;99.90;;;;;;5068925;28;20600;-66
2021/03/21 12:17:31;;;;;;;41.80;5.83;;;20.10;99.90;;;;;;5062700;28;20270;-69
2021/03/21 12:20:19;;;;;;;39.40;6.10;;;20.10;99.90;;;;;;5071399;28;20168;-69
2021/03/21 12:22:50;;;;;;;43.97;5.77;;;20.00;99.90;;;;;;5062757;28;20191;-68
2021/03/21 12:25:33;;;;;;;34.87;4.97;;;20.00;99.90;;;;;;5072210;28;20180;-67
2021/03/21 12:28:18;;;;;;;34.13;5.80;;;20.00;99.90;;;;;;5071158;28;20226;-68
2021/03/21 12:30:53;;;;;;;36.93;5.63;;;20.00;99.90;;;;;;5068568;28;20182;-69
2021/03/21 12:33:26;;;;;;;30.10;5.47;;;20.00;99.90;;;;;;5072644;28;20163;-71
2021/03/21 12:36:04;;;;;;;35.63;4.93;;;19.90;99.90;;;;;;5063920;28;20210;-69
2021/03/21 12:38:33;;;;;;;38.10;5.90;;;19.90;99.90;;;;;;5075719;28;20178;-68
2021/03/21 12:41:29;;;;;;;32.60;4.83;;;20.00;99.90;;;;;;5072462;28;20281;-68
2021/03/21 12:44:21;;;;;;;33.33;5.65;;;19.90;99.90;;;;;;5067194;28;20396;-68
2021/03/21 12:46:58;;;;;;;38.10;5.50;;;19.90;99.90;;;;;;5073017;28;20221;-68
2021/03/21 12:49:39;;;;;;;39.13;5.47;;;19.90;99.90;;;;;;5072462;28;20198;-68
2021/03/21 12:52:42;;;;;;;35.60;5.23;;;19.90;99.90;;;;;;5071480;28;20258;-68
2021/03/21 12:55:16;;;;;;;43.07;5.20;;;19.80;99.90;;;;;;5062526;28;20211;-68
2021/03/21 12:57:44;;;;;;;34.67;5.93;;;19.80;99.90;;;;;;5072636;28;20246;-68
2021/03/21 13:00:20;;;;;;;31.33;5.23;;;19.80;99.90;;;;;;5072844;28;20175;-68
2021/03/21 13:02:53;;;;;;;32.23;4.80;;;19.90;99.90;;;;;;5072532;28;20548;-67
2021/03/21 13:05:30;;;;;;;39.80;5.47;;;19.90;99.90;;;;;;5072299;28;20211;-68
2021/03/21 13:07:58;;;;;;;30.63;4.90;;;19.90;99.90;;;;;;5072345;28;20183;-69
2021/03/21 13:10:28;;;;;;;35.60;5.83;;;19.90;99.90;;;;;;5072890;28;20664;-71
2021/03/21 13:12:56;;;;;;;43.70;5.60;;;19.90;99.90;;;;;;5070874;28;20562;-70
2021/03/21 13:15:23;;;;;;;31.27;4.50;;;20.00;99.90;;;;;;5063428;28;20210;-68
2021/03/21 13:17:51;;;;;;;38.53;5.37;;;20.00;99.90;;;;;;5067419;28;20198;-70
2021/03/21 13:20:20;;;;;;;49.00;5.23;;;19.90;99.90;;;;;;5070515;28;20183;-71
2021/03/21 13:22:48;;;;;;;28.07;4.43;;;20.00;99.90;;;;;;5071862;28;20198;-71
2021/03/21 13:25:23;;;;;;;28.27;4.23;;;19.90;99.90;;;;;;5072052;28;20175;-70
2021/03/21 13:27:56;;;;;;;37.70;6.93;;;19.90;99.90;;;;;;5054322;28;20225;-70
2021/03/21 13:30:27;;;;;;;26.97;4.67;;;19.90;99.90;;;;;;5072630;28;20186;-72
2021/03/21 13:32:55;;;;;;;37.37;5.43;;;19.90;99.90;;;;;;5069410;28;20182;-71
2021/03/21 13:35:25;;;;;;;37.40;5.00;;;19.90;99.90;;;;;;5069771;28;20310;-68
2021/03/21 13:37:53;;;;;;;28.73;5.20;;;19.90;99.90;;;;;;5069148;28;20784;-70